createdAt,value
2019-04-10T00:00:44.314Z,7.43
2019-04-10T00:03:25.533Z,6.33
2019-04-10T00:05:48.043Z,6.33
2019-04-10T00:08:19.658Z,6.20
2019-04-10T00:10:50.742Z,5.67
2019-04-10T00:13:22.532Z,5.87
2019-04-10T00:15:52.900Z,6.17
2019-04-10T00:18:23.950Z,6.00
2019-04-10T00:20:54.386Z,5.53
2019-04-10T00:23:24.800Z,4.97
2019-04-10T00:25:55.132Z,5.73
2019-04-10T00:28:25.540Z,5.33
2019-04-10T00:30:56.010Z,5.27
2019-04-10T00:33:27.059Z,5.13
2019-04-10T00:35:58.170Z,6.00
2019-04-10T00:38:29.483Z,5.73
2019-04-10T00:41:00.170Z,5.27
2019-04-10T00:43:30.824Z,5.17
2019-04-10T00:46:02.013Z,5.27
2019-04-10T00:48:32.467Z,4.70
2019-04-10T00:51:03.390Z,4.60
2019-04-10T00:53:34.924Z,4.50
2019-04-10T00:56:06.294Z,4.67
2019-04-10T00:58:37.549Z,4.90
2019-04-10T01:01:09.694Z,4.20
2019-04-10T01:03:46.627Z,4.30
2019-04-10T01:06:16.930Z,4.10
2019-04-10T01:08:48.609Z,4.13
2019-04-10T01:11:21.067Z,3.90
2019-04-10T01:13:51.877Z,4.27
2019-04-10T01:16:23.123Z,3.40
2019-04-10T01:18:53.538Z,3.73
2019-04-10T01:21:24.521Z,4.00
2019-04-10T01:23:56.060Z,3.87
2019-04-10T01:26:28.064Z,4.07
2019-04-10T01:28:59.031Z,3.67
2019-04-10T01:31:29.559Z,3.87
2019-04-10T01:34:19.028Z,4.20
2019-04-10T01:50:57.067Z,2.80
2019-04-10T01:53:28.040Z,3.07
2019-04-10T01:55:59.634Z,3.27
2019-04-10T01:58:34.928Z,3.50
2019-04-10T02:01:10.404Z,3.23
2019-04-10T02:03:40.520Z,2.90
2019-04-10T02:06:11.348Z,2.90
2019-04-10T02:08:42.324Z,3.33
2019-04-10T02:11:13.287Z,2.63
2019-04-10T02:13:43.568Z,3.17
2019-04-10T02:16:14.594Z,2.90
2019-04-10T02:18:45.730Z,2.80
2019-04-10T02:21:17.962Z,2.80
2019-04-10T02:23:48.535Z,3.60
2019-04-10T02:26:19.148Z,3.20
2019-04-10T02:28:49.308Z,2.83
2019-04-10T02:31:21.372Z,3.13
2019-04-10T02:33:51.764Z,3.20
2019-04-10T02:36:23.413Z,3.50
2019-04-10T02:39:06.930Z,3.53
2019-04-10T02:41:27.816Z,3.63
2019-04-10T02:43:59.849Z,3.63
2019-04-10T02:46:31.381Z,3.20
2019-04-10T02:49:01.828Z,3.10
2019-04-10T02:51:32.674Z,2.70
2019-04-10T02:54:04.964Z,3.40
2019-04-10T02:56:36.607Z,3.17
2019-04-10T02:59:07.386Z,3.50
2019-04-10T03:01:39.931Z,3.17
2019-04-10T03:04:11.866Z,3.20
2019-04-10T03:06:45.088Z,3.17
2019-04-10T03:09:32.237Z,3.30
2019-04-10T03:11:47.551Z,3.10
2019-04-10T03:14:18.946Z,3.50
2019-04-10T03:16:49.499Z,3.43
2019-04-10T03:19:19.959Z,3.30
2019-04-10T03:21:51.273Z,3.67
2019-04-10T03:24:21.496Z,3.10
2019-04-10T03:26:52.157Z,3.37
2019-04-10T03:29:22.480Z,3.20
2019-04-10T03:31:54.715Z,3.60
2019-04-10T03:34:31.290Z,3.50
2019-04-10T03:37:02.568Z,3.70
2019-04-10T03:39:35.744Z,4.60
2019-04-10T03:42:04.941Z,6.17
2019-04-10T03:44:35.369Z,5.73
2019-04-10T03:47:05.469Z,5.80
2019-04-10T03:49:36.159Z,5.90
2019-04-10T03:52:07.227Z,4.73
2019-04-10T03:54:38.940Z,4.10
2019-04-10T03:57:10.344Z,4.40
2019-04-10T03:59:41.695Z,4.77
2019-04-10T04:02:13.676Z,4.47
2019-04-10T04:04:44.116Z,4.40
2019-04-10T04:07:15.542Z,4.03
2019-04-10T04:09:48.071Z,3.60
2019-04-10T04:12:20.303Z,4.17
2019-04-10T04:14:59.014Z,4.37
2019-04-10T04:17:33.736Z,4.50
2019-04-10T04:20:06.509Z,4.43
2019-04-10T04:22:37.571Z,4.43
2019-04-10T04:25:08.686Z,4.60
2019-04-10T04:27:40.573Z,4.03
2019-04-10T04:30:10.999Z,4.50
2019-04-10T04:32:42.112Z,4.50
2019-04-10T04:35:13.228Z,4.80
2019-04-10T04:37:44.276Z,4.50
2019-04-10T04:40:14.958Z,4.03
2019-04-10T04:42:45.460Z,4.30
2019-04-10T04:45:15.783Z,4.67
2019-04-10T04:47:45.701Z,4.80
2019-04-10T04:50:15.691Z,4.07
2019-04-10T04:52:46.493Z,4.87
2019-04-10T04:55:17.662Z,4.23
2019-04-10T04:57:47.931Z,4.47
2019-04-10T05:00:18.410Z,4.13
2019-04-10T05:02:49.329Z,4.70
2019-04-10T05:05:19.652Z,4.73
2019-04-10T05:07:59.408Z,4.77
2019-04-10T05:10:22.907Z,4.97
2019-04-10T05:12:53.885Z,6.80
2019-04-10T05:29:30.674Z,5.70
2019-04-10T05:31:59.506Z,7.17
2019-04-10T05:34:29.931Z,6.20
2019-04-10T05:37:19.434Z,5.67
2019-04-10T05:39:51.955Z,6.53
2019-04-10T05:42:22.543Z,5.03
2019-04-10T05:44:52.831Z,4.90
2019-04-10T05:47:22.756Z,9.60
2019-04-10T05:49:53.332Z,6.53
2019-04-10T05:52:23.607Z,7.57
2019-04-10T05:54:53.307Z,6.17
2019-04-10T05:57:24.515Z,5.53
2019-04-10T05:59:54.878Z,7.63
2019-04-10T06:02:25.280Z,5.73
2019-04-10T06:04:56.041Z,7.00
2019-04-10T06:07:45.445Z,6.43
2019-04-10T06:10:15.838Z,5.73
2019-04-10T06:12:46.809Z,6.10
2019-04-10T06:15:16.997Z,5.80
2019-04-10T06:17:47.117Z,5.20
2019-04-10T06:20:17.859Z,5.27
2019-04-10T06:22:48.167Z,5.37
2019-04-10T06:25:19.515Z,5.93
2019-04-10T06:27:50.585Z,5.83
2019-04-10T06:30:21.287Z,5.53
2019-04-10T06:32:53.826Z,5.77
2019-04-10T06:35:26.149Z,5.60
2019-04-10T06:38:00.559Z,5.67
2019-04-10T06:43:55.578Z,5.50
2019-04-10T06:46:26.941Z,6.73
2019-04-10T06:48:56.731Z,6.37
2019-04-10T06:51:27.290Z,5.77
2019-04-10T06:54:02.794Z,6.07
2019-04-10T06:56:29.886Z,5.93
2019-04-10T07:04:25.097Z,13.07
2019-04-10T07:07:00.739Z,7.20
2019-04-10T07:09:27.071Z,11.63
2019-04-10T07:12:02.577Z,9.33
2019-04-10T07:20:26.120Z,6.57
2019-04-10T07:22:58.058Z,6.37
2019-04-10T07:25:30.457Z,7.23
2019-04-10T07:28:08.427Z,7.20
2019-04-10T07:30:36.180Z,6.70
2019-04-10T07:33:21.030Z,11.57
2019-04-10T07:35:55.142Z,17.10
2019-04-10T07:41:53.587Z,6.40
2019-04-10T07:47:48.300Z,10.00
2019-04-10T07:50:18.747Z,8.67
2019-04-10T07:52:57.877Z,7.53
2019-04-10T07:55:28.883Z,6.30
2019-04-10T07:57:59.547Z,9.30
2019-04-10T08:00:29.867Z,7.13
2019-04-10T08:03:00.309Z,7.53
2019-04-10T08:05:33.276Z,9.57
2019-04-10T08:08:05.019Z,10.33
2019-04-10T08:10:55.037Z,6.93
2019-04-10T08:13:25.347Z,7.07
2019-04-10T08:15:56.350Z,7.60
2019-04-10T08:18:27.576Z,8.23
2019-04-10T08:20:57.878Z,6.63
2019-04-10T08:23:28.491Z,8.00
2019-04-10T08:25:58.715Z,8.23
2019-04-10T08:28:30.570Z,8.40
2019-04-10T08:31:01.052Z,7.57
2019-04-10T08:33:38.613Z,7.37
2019-04-10T08:36:21.467Z,8.07
2019-04-10T08:38:52.867Z,12.17
2019-04-10T08:41:25.478Z,13.60
2019-04-10T08:43:58.922Z,16.03
2019-04-10T08:46:30.202Z,11.57
2019-04-10T08:49:03.537Z,13.40
2019-04-10T08:51:43.665Z,9.87
2019-04-10T08:54:14.241Z,11.10
2019-04-10T08:56:45.086Z,13.90
2019-04-10T08:59:15.896Z,7.93
2019-04-10T09:01:45.941Z,11.40
2019-04-10T09:04:16.170Z,10.77
2019-04-10T09:06:47.291Z,9.90
2019-04-10T09:09:17.931Z,12.03
2019-04-10T09:11:47.947Z,7.33
2019-04-10T09:14:19.096Z,10.37
2019-04-10T09:16:49.111Z,8.03
2019-04-10T09:19:20.448Z,8.33
2019-04-10T09:21:50.685Z,9.33
2019-04-10T09:24:21.643Z,7.53
2019-04-10T09:26:52.903Z,7.10
2019-04-10T09:29:24.724Z,7.50
2019-04-10T09:32:12.571Z,8.40
2019-04-10T09:34:45.552Z,23.03
2019-04-10T09:37:15.643Z,13.53
2019-04-10T09:40:05.588Z,11.27
2019-04-10T09:42:36.442Z,24.60
2019-04-10T09:45:07.830Z,18.80
2019-04-10T09:47:39.511Z,10.53
2019-04-10T09:50:10.172Z,8.13
2019-04-10T09:52:41.050Z,10.60
2019-04-10T09:55:11.727Z,8.37
2019-04-10T09:57:43.001Z,11.43
2019-04-10T10:00:14.683Z,6.87
2019-04-10T10:02:45.282Z,8.07
2019-04-10T10:05:15.563Z,8.57
2019-04-10T10:07:46.170Z,9.47
2019-04-10T10:10:20.645Z,10.83
2019-04-10T10:12:52.565Z,11.13
2019-04-10T10:15:25.255Z,10.80
2019-04-10T10:17:57.033Z,8.93
2019-04-10T10:20:29.207Z,9.90
2019-04-10T10:23:01.210Z,7.83
2019-04-10T10:25:31.542Z,10.40
2019-04-10T10:28:02.860Z,10.93
2019-04-10T10:30:33.726Z,8.43
2019-04-10T10:33:03.780Z,10.03
2019-04-10T10:35:33.660Z,8.07
2019-04-10T10:38:05.412Z,7.93
2019-04-10T10:40:36.234Z,8.03
2019-04-10T10:43:07.872Z,7.53
2019-04-10T10:45:38.729Z,8.07
2019-04-10T10:48:09.151Z,8.23
2019-04-10T10:50:39.502Z,8.40
2019-04-10T10:53:12.233Z,17.93
2019-04-10T10:55:42.185Z,13.33
2019-04-10T10:58:13.318Z,13.47
2019-04-10T11:00:44.379Z,14.20
2019-04-10T11:03:34.157Z,8.67
2019-04-10T11:06:04.676Z,24.97
2019-04-10T11:08:37.339Z,16.40
2019-04-10T11:11:08.620Z,19.60
2019-04-10T11:13:39.244Z,10.83
2019-04-10T11:16:10.618Z,9.63
2019-04-10T11:18:42.461Z,14.23
2019-04-10T11:21:14.126Z,16.03
2019-04-10T11:23:44.827Z,12.67
2019-04-10T11:26:19.964Z,19.17
2019-04-10T11:28:47.917Z,13.67
2019-04-10T11:31:18.358Z,13.20
2019-04-10T11:33:51.990Z,12.47
2019-04-10T11:36:21.073Z,9.20
2019-04-10T11:38:51.865Z,18.33
2019-04-10T11:41:25.957Z,15.73
2019-04-10T11:43:56.165Z,11.57
2019-04-10T11:46:31.078Z,11.93
2019-04-10T11:49:00.679Z,19.67
2019-04-10T11:51:35.659Z,21.63
2019-04-10T11:54:10.967Z,14.90
2019-04-10T11:56:38.485Z,9.40
2019-04-10T11:59:12.372Z,10.00
2019-04-10T12:01:46.774Z,11.83
2019-04-10T12:04:20.087Z,16.63
2019-04-10T12:06:53.593Z,10.20
2019-04-10T12:13:16.458Z,11.87
2019-04-10T12:16:12.582Z,10.60
2019-04-10T12:19:02.668Z,10.37
2019-04-10T12:21:33.677Z,7.97
2019-04-10T12:24:03.760Z,7.93
2019-04-10T12:26:34.100Z,8.53
2019-04-10T12:29:04.923Z,14.57
2019-04-10T12:31:38.101Z,14.70
2019-04-10T12:34:08.817Z,11.20
2019-04-10T12:36:39.281Z,9.70
2019-04-10T12:39:10.620Z,13.53
2019-04-10T12:42:23.877Z,12.00
2019-04-10T12:45:13.838Z,13.87
2019-04-10T12:47:44.052Z,15.00
2019-04-10T12:50:18.354Z,10.50
2019-04-10T12:52:49.410Z,9.07
2019-04-10T12:55:20.585Z,9.07
2019-04-10T12:57:51.074Z,8.73
2019-04-10T13:00:24.067Z,9.17
2019-04-10T13:02:54.540Z,12.47
2019-04-10T13:05:25.134Z,13.97
2019-04-10T13:08:19.150Z,16.90
2019-04-10T13:10:42.060Z,16.07
2019-04-10T13:13:17.784Z,13.43
2019-04-10T13:15:53.965Z,13.77
2019-04-10T13:18:25.314Z,14.90
2019-04-10T13:20:55.971Z,13.23
2019-04-10T13:23:26.380Z,15.73
2019-04-10T13:26:01.813Z,15.63
2019-04-10T13:28:31.736Z,17.30
2019-04-10T13:31:02.147Z,17.40
2019-04-10T13:33:33.499Z,13.10
2019-04-10T13:36:04.988Z,24.10
2019-04-10T13:38:36.645Z,32.50
2019-04-10T13:41:08.138Z,33.77
2019-04-10T13:43:38.786Z,13.60
2019-04-10T13:46:08.837Z,17.87
2019-04-10T13:48:39.703Z,11.33
2019-04-10T13:51:11.315Z,13.57
2019-04-10T13:53:41.920Z,13.10
2019-04-10T13:56:12.897Z,12.60
2019-04-10T13:58:50.827Z,18.10
2019-04-10T14:01:31.584Z,16.53
2019-04-10T14:04:03.144Z,11.63
2019-04-10T14:06:33.916Z,18.30
2019-04-10T14:09:27.103Z,17.67
2019-04-10T14:11:47.784Z,18.73
2019-04-10T14:17:50.187Z,10.73
2019-04-10T14:20:21.730Z,15.17
2019-04-10T14:23:04.198Z,14.13
2019-04-10T14:25:47.773Z,13.47
2019-04-10T14:28:43.012Z,19.00
2019-04-10T14:31:36.254Z,8.47
2019-04-10T14:34:07.802Z,15.03
2019-04-10T14:36:40.576Z,12.73
2019-04-10T14:39:20.916Z,15.50
2019-04-10T14:41:56.187Z,19.43
2019-04-10T14:44:28.750Z,14.10
2019-04-10T14:47:06.489Z,17.27
2019-04-10T14:49:45.148Z,15.33
2019-04-10T14:52:18.925Z,13.03
2019-04-10T14:54:52.218Z,15.27
2019-04-10T14:57:26.598Z,13.30
2019-04-10T15:00:10.709Z,13.60
2019-04-10T15:03:08.701Z,14.53
2019-04-10T15:05:51.048Z,11.40
2019-04-10T15:08:17.844Z,17.17
2019-04-10T15:10:48.486Z,15.97
2019-04-10T15:13:21.253Z,15.33
2019-04-10T15:15:52.910Z,16.37
2019-04-10T15:18:25.387Z,17.20
2019-04-10T15:21:12.722Z,25.37
2019-04-10T15:23:45.169Z,12.33
2019-04-10T15:26:19.732Z,21.53
2019-04-10T15:28:51.951Z,19.03
2019-04-10T15:31:28.701Z,21.80
2019-04-10T15:34:03.555Z,18.50
2019-04-10T15:36:36.151Z,13.63
2019-04-10T15:39:13.135Z,17.10
2019-04-10T15:41:45.532Z,17.27
2019-04-10T15:44:21.814Z,16.37
2019-04-10T15:46:54.755Z,16.03
2019-04-10T15:49:27.540Z,17.33
2019-04-10T15:52:01.540Z,33.50
2019-04-10T15:54:34.029Z,16.93
2019-04-10T15:57:07.311Z,26.77
2019-04-10T15:59:38.968Z,33.10
2019-04-10T16:02:13.607Z,17.87
2019-04-10T16:04:45.150Z,26.00
2019-04-10T16:07:20.209Z,20.53
2019-04-10T16:09:55.145Z,27.10
2019-04-10T16:12:31.288Z,32.20
2019-04-10T16:21:26.914Z,22.50
2019-04-10T16:24:04.939Z,25.43
2019-04-10T16:26:59.995Z,46.63
2019-04-10T16:33:20.173Z,40.50
2019-04-10T16:36:44.166Z,22.07
2019-04-10T16:39:58.608Z,21.00
2019-04-10T16:42:41.733Z,30.03
2019-04-10T16:45:53.301Z,29.10
2019-04-10T16:48:20.931Z,25.90
2019-04-10T16:50:53.892Z,32.33
2019-04-10T16:53:23.862Z,45.77
2019-04-10T16:55:54.814Z,39.67
2019-04-10T16:58:26.064Z,30.77
2019-04-10T17:00:59.454Z,42.77
2019-04-10T17:03:31.749Z,47.30
2019-04-10T17:06:03.986Z,26.87
2019-04-10T17:08:38.870Z,35.30
2019-04-10T17:11:14.878Z,34.90
2019-04-10T17:13:50.937Z,37.60
2019-04-10T17:16:29.312Z,39.87
2019-04-10T17:19:04.077Z,28.63
2019-04-10T17:21:38.424Z,36.23
2019-04-10T17:24:13.286Z,43.17
2019-04-10T17:26:46.690Z,51.53
2019-04-10T17:29:20.872Z,55.03
2019-04-10T17:32:00.976Z,36.43
2019-04-10T17:34:35.948Z,44.33
2019-04-10T17:37:17.821Z,52.83
2019-04-10T17:39:52.652Z,47.73
2019-04-10T17:42:46.343Z,31.17
2019-04-10T17:45:20.599Z,48.23
2019-04-10T17:48:05.132Z,37.67
2019-04-10T17:50:53.260Z,29.17
2019-04-10T17:53:33.501Z,31.53
2019-04-10T17:56:08.423Z,26.77
2019-04-10T17:58:41.710Z,36.27
2019-04-10T18:01:22.981Z,35.30
2019-04-10T18:04:05.626Z,43.80
2019-04-10T18:06:44.034Z,35.53
2019-04-10T18:09:18.424Z,29.90
2019-04-10T18:11:54.789Z,24.03
2019-04-10T18:14:31.484Z,25.10
2019-04-10T18:17:06.572Z,20.33
2019-04-10T18:19:47.201Z,21.70
2019-04-10T18:22:18.918Z,21.97
2019-04-10T18:24:51.670Z,23.17
2019-04-10T18:27:26.173Z,17.00
2019-04-10T18:29:59.926Z,19.33
2019-04-10T18:32:34.343Z,20.83
2019-04-10T18:35:16.418Z,18.60
2019-04-10T18:37:49.117Z,11.67
2019-04-10T18:40:23.468Z,17.30
2019-04-10T18:43:00.524Z,23.50
2019-04-10T18:45:54.836Z,18.97
2019-04-10T18:48:22.939Z,11.13
2019-04-10T18:50:57.629Z,19.57
2019-04-10T18:53:39.397Z,12.63
2019-04-10T18:56:13.316Z,14.10
2019-04-10T18:58:58.402Z,19.00
2019-04-10T19:01:43.208Z,13.70
2019-04-10T19:04:24.526Z,17.73
2019-04-10T19:07:01.988Z,21.07
2019-04-10T19:09:38.951Z,19.40
2019-04-10T19:12:16.687Z,21.67
2019-04-10T19:14:56.640Z,12.83
2019-04-10T19:17:29.454Z,12.50
2019-04-10T19:20:10.953Z,13.87
2019-04-10T19:22:46.039Z,12.83
2019-04-10T19:25:25.374Z,11.53
2019-04-10T19:27:58.084Z,13.93
2019-04-10T19:30:42.097Z,12.43
2019-04-10T19:33:14.076Z,16.47
2019-04-10T19:35:46.126Z,14.90
2019-04-10T19:38:18.986Z,14.33
2019-04-10T19:40:52.033Z,13.23
2019-04-10T19:43:27.142Z,10.67
2019-04-10T19:46:04.162Z,11.40
2019-04-10T19:48:35.569Z,17.20
2019-04-10T19:51:12.025Z,12.73
2019-04-10T19:53:45.842Z,12.80
2019-04-10T19:56:29.370Z,13.10
2019-04-10T19:59:02.996Z,14.83
2019-04-10T20:01:36.165Z,14.00
2019-04-10T20:04:18.820Z,20.63
2019-04-10T20:06:54.523Z,16.37
2019-04-10T20:09:30.556Z,16.23
2019-04-10T20:12:02.972Z,15.37
2019-04-10T20:14:36.756Z,16.13
2019-04-10T20:17:08.073Z,14.90
2019-04-10T20:19:40.402Z,13.87
2019-04-10T20:22:12.611Z,14.83
2019-04-10T20:24:45.428Z,23.43
2019-04-10T20:27:20.240Z,55.70
2019-04-10T20:30:13.331Z,21.87
2019-04-10T20:32:47.732Z,20.53
2019-04-10T20:37:58.869Z,14.00
2019-04-10T20:40:29.982Z,12.90
2019-04-10T20:43:02.677Z,24.83
2019-04-10T20:45:35.699Z,24.37
2019-04-10T20:48:12.065Z,16.47
2019-04-10T20:50:43.968Z,26.87
2019-04-10T20:53:16.333Z,15.80
2019-04-10T20:55:51.070Z,26.47
2019-04-10T20:58:22.931Z,14.70
2019-04-10T21:00:54.764Z,17.93
2019-04-10T21:03:25.617Z,17.17
2019-04-10T21:05:58.288Z,14.97
2019-04-10T21:08:30.269Z,18.27
2019-04-10T21:11:01.600Z,13.53
2019-04-10T21:13:36.278Z,12.90
2019-04-10T21:16:07.578Z,15.57
2019-04-10T21:18:39.721Z,16.80
2019-04-10T21:21:10.783Z,12.87
2019-04-10T21:23:42.092Z,13.83
2019-04-10T21:26:12.479Z,19.57
2019-04-10T21:28:44.207Z,16.13
2019-04-10T21:31:34.277Z,18.10
2019-04-10T21:34:23.682Z,13.80
2019-04-10T21:36:54.360Z,13.03
2019-04-10T21:39:25.672Z,10.97
2019-04-10T21:41:55.881Z,10.60
2019-04-10T21:44:26.712Z,11.80
2019-04-10T21:46:57.217Z,16.97
2019-04-10T21:49:28.339Z,11.90
2019-04-10T21:51:58.492Z,11.43
2019-04-10T21:54:29.332Z,13.43
2019-04-10T21:56:59.909Z,10.77
2019-04-10T21:59:31.424Z,11.23
2019-04-10T22:02:02.794Z,10.40
2019-04-10T22:04:33.608Z,14.73
2019-04-10T22:07:14.491Z,11.37
2019-04-10T22:09:51.160Z,13.30
2019-04-10T22:12:31.694Z,11.60
2019-04-10T22:14:58.336Z,12.53
2019-04-10T22:17:28.558Z,10.00
2019-04-10T22:19:59.276Z,11.47
2019-04-10T22:22:29.104Z,10.73
2019-04-10T22:25:01.209Z,12.60
2019-04-10T22:27:32.019Z,10.50
2019-04-10T22:30:04.869Z,10.90
2019-04-10T22:32:35.444Z,15.97
2019-04-10T22:35:10.961Z,9.80
2019-04-10T22:37:50.332Z,9.43
2019-04-10T22:40:25.648Z,9.73
2019-04-10T22:42:57.487Z,8.83
2019-04-10T22:45:31.007Z,9.40
2019-04-10T22:48:01.961Z,10.23
2019-04-10T22:50:32.562Z,11.67
2019-04-10T22:53:04.593Z,9.67
2019-04-10T22:55:40.002Z,10.97
2019-04-10T22:58:14.954Z,11.17
2019-04-10T23:00:46.456Z,10.13
2019-04-10T23:03:16.582Z,8.93
2019-04-10T23:05:47.002Z,8.60
2019-04-10T23:08:17.851Z,8.70
2019-04-10T23:10:48.901Z,9.00
2019-04-10T23:13:19.934Z,8.87
2019-04-10T23:15:51.463Z,8.60
2019-04-10T23:18:21.897Z,9.37
2019-04-10T23:20:52.842Z,9.20
2019-04-10T23:23:23.260Z,8.80
2019-04-10T23:25:54.110Z,8.67
2019-04-10T23:28:25.320Z,8.40
2019-04-10T23:30:55.888Z,9.10
2019-04-10T23:33:26.300Z,8.53
2019-04-10T23:35:57.937Z,8.90
2019-04-10T23:38:28.911Z,8.60
2019-04-10T23:40:59.115Z,8.87
2019-04-10T23:43:29.516Z,8.00
2019-04-10T23:46:02.058Z,8.70
2019-04-10T23:48:32.936Z,8.53
2019-04-10T23:51:03.393Z,9.60
2019-04-10T23:53:33.799Z,10.20
2019-04-10T23:56:04.267Z,8.90
2019-04-10T23:58:35.010Z,9.20
